Shelton, Washington
Current Conditions -  °F | °C
As of 1:53 AM on Sunday 26 Oct 2014 (Local Time) from KSHN Reporting Station
Light Rain Light Rain  
Wind Chill: 43°   Ceiling: 5000
Heat Index: 48°   Visibility: 7mi
Dew Point: 45°   Wind: 10mph
Humidity: 89%   Direction: 230°SW
Pressure: 29.82"   Gusts: NA
Location:  47.21°N, 123.1°W
Report Text: KSHN 260853Z AUTO 23009KT 7SM -RA BKN050 BKN075 BKN110 09/07 A2982 RMK AO2 RAB0754E03B32 SLP098 P0001 60003 T00890072 51042 TSNO
Loading
Personal Weather Stations






























Interactive Weather Map
Tropical Storm Tracking
New forecast layout! Learn more

10-Day Weather Forecast

Advertisements
Track Severe Weather on mobile